createdAt,value
2018-03-23T00:00:43.408Z,98896.19
2018-03-23T00:03:11.032Z,98879.87
2018-03-23T00:05:38.608Z,98874.52
2018-03-23T00:08:06.201Z,98870.34
2018-03-23T00:10:33.834Z,98863.11
2018-03-23T00:13:01.431Z,98856.80
2018-03-23T00:15:29.023Z,98852.11
2018-03-23T00:17:56.663Z,98852.16
2018-03-23T00:20:24.247Z,98848.08
2018-03-23T00:22:51.838Z,98847.80
2018-03-23T00:25:19.465Z,98857.22
2018-03-23T00:27:47.053Z,98859.63
2018-03-23T00:30:14.642Z,98860.59
2018-03-23T00:32:42.261Z,98858.77
2018-03-23T00:35:09.851Z,98861.39
2018-03-23T00:37:37.448Z,98862.34
2018-03-23T00:40:05.084Z,98855.62
2018-03-23T00:42:32.684Z,98849.70
2018-03-23T00:45:00.274Z,98842.71
2018-03-23T00:47:27.905Z,98830.24
2018-03-23T00:49:55.482Z,98840.15
2018-03-23T00:52:23.069Z,98829.41
2018-03-23T00:54:50.702Z,98822.32
2018-03-23T00:57:18.330Z,98824.44
2018-03-23T00:59:45.910Z,98812.48
2018-03-23T01:02:13.542Z,98805.30
2018-03-23T01:04:41.126Z,98797.04
2018-03-23T01:07:08.719Z,98791.88
2018-03-23T01:09:36.384Z,98795.02
2018-03-23T01:12:03.967Z,98802.25
2018-03-23T01:14:31.559Z,98786.03
2018-03-23T01:16:59.223Z,98781.53
2018-03-23T01:19:26.822Z,98769.40
2018-03-23T01:21:54.407Z,98770.40
2018-03-23T01:24:22.028Z,98767.47
2018-03-23T01:26:49.616Z,98774.05
2018-03-23T01:29:17.211Z,98770.52
2018-03-23T01:31:44.835Z,98770.84
2018-03-23T01:34:12.419Z,98766.17
2018-03-23T01:36:40.010Z,98760.62
2018-03-23T01:39:07.644Z,98761.41
2018-03-23T01:41:35.235Z,98770.83
2018-03-23T01:44:02.849Z,98792.13
2018-03-23T01:46:30.469Z,98780.86
2018-03-23T01:48:58.053Z,98784.62
2018-03-23T01:51:25.649Z,98780.06
2018-03-23T01:53:53.269Z,98770.91
2018-03-23T01:56:20.857Z,98773.84
2018-03-23T01:58:48.458Z,98778.41
2018-03-23T02:01:16.089Z,98775.88
2018-03-23T02:03:43.684Z,98763.92
2018-03-23T02:06:11.271Z,98747.81
2018-03-23T02:08:38.890Z,98734.15
2018-03-23T02:11:06.473Z,98735.24
2018-03-23T02:13:34.057Z,98729.68
2018-03-23T02:16:01.672Z,98727.05
2018-03-23T02:18:29.266Z,98720.03
2018-03-23T02:20:56.856Z,98694.50
2018-03-23T02:23:24.486Z,98730.88
2018-03-23T02:25:52.068Z,98738.60
2018-03-23T02:28:19.659Z,98731.60
2018-03-23T02:30:47.300Z,98726.52
2018-03-23T02:33:14.886Z,98739.59
2018-03-23T02:35:42.481Z,98757.58
2018-03-23T02:38:10.099Z,98758.08
2018-03-23T02:40:37.679Z,98745.39
2018-03-23T02:43:05.270Z,98748.75
2018-03-23T02:45:32.885Z,98757.08
2018-03-23T02:48:00.471Z,98758.45
2018-03-23T02:50:28.058Z,98763.61
2018-03-23T02:52:55.709Z,98766.78
2018-03-23T02:55:23.291Z,98763.74
2018-03-23T02:57:50.878Z,98760.67
2018-03-23T03:00:18.499Z,98762.70
2018-03-23T03:02:46.087Z,98761.06
2018-03-23T03:05:13.679Z,98765.87
2018-03-23T03:07:41.311Z,98780.56
2018-03-23T03:10:08.892Z,98790.47
2018-03-23T03:12:36.474Z,98789.58
2018-03-23T03:15:04.141Z,98797.75
2018-03-23T03:17:31.721Z,98804.02
2018-03-23T03:19:59.285Z,98788.59
2018-03-23T03:22:26.894Z,98794.63
2018-03-23T03:24:54.476Z,98794.01
2018-03-23T03:27:22.056Z,98795.91
2018-03-23T03:29:49.678Z,98794.59
2018-03-23T03:32:17.253Z,98789.37
2018-03-23T03:34:44.831Z,98769.72
2018-03-23T03:37:12.440Z,98776.17
2018-03-23T03:39:40.014Z,98777.64
2018-03-23T03:42:07.598Z,98786.99
2018-03-23T03:44:35.218Z,98780.23
2018-03-23T03:47:02.798Z,98776.64
2018-03-23T03:49:30.427Z,98767.30
2018-03-23T03:51:58.033Z,98757.31
2018-03-23T03:54:25.610Z,98744.09
2018-03-23T03:56:53.182Z,98726.86
2018-03-23T03:59:20.799Z,98725.46
2018-03-23T04:01:48.377Z,98716.34
2018-03-23T04:04:15.966Z,98727.95
2018-03-23T04:06:43.579Z,98719.56
2018-03-23T04:09:11.152Z,98725.64
2018-03-23T04:11:38.741Z,98727.78
2018-03-23T04:14:06.353Z,98716.07
2018-03-23T04:16:33.934Z,98722.15
2018-03-23T04:19:01.519Z,98720.37
2018-03-23T04:21:29.146Z,98724.79
2018-03-23T04:23:56.729Z,98712.67
2018-03-23T04:26:24.310Z,98714.66
2018-03-23T04:28:51.929Z,98715.48
2018-03-23T04:31:19.498Z,98700.73
2018-03-23T04:33:47.090Z,98698.10
2018-03-23T04:36:14.720Z,98693.07
2018-03-23T04:38:42.319Z,98694.84
2018-03-23T04:41:09.901Z,98685.19
2018-03-23T04:43:37.526Z,98689.77
2018-03-23T04:46:05.152Z,98689.14
2018-03-23T04:48:32.735Z,98688.45
2018-03-23T04:51:00.349Z,98682.56
2018-03-23T04:53:27.952Z,98677.47
2018-03-23T04:55:55.545Z,98689.13
2018-03-23T04:58:23.174Z,98688.09
2018-03-23T05:00:50.757Z,98674.80
2018-03-23T05:03:18.359Z,98681.09
2018-03-23T05:05:45.972Z,98683.78
2018-03-23T05:08:13.569Z,98673.62
2018-03-23T05:10:41.157Z,98684.50
2018-03-23T05:13:08.769Z,98690.30
2018-03-23T05:15:36.360Z,98681.73
2018-03-23T05:18:03.937Z,98673.59
2018-03-23T05:20:31.562Z,98665.38
2018-03-23T05:22:59.124Z,98657.95
2018-03-23T05:25:26.706Z,98658.02
2018-03-23T05:27:54.326Z,98655.68
2018-03-23T05:30:21.913Z,98650.84
2018-03-23T05:32:49.502Z,98640.02
2018-03-23T05:35:17.116Z,98641.55
2018-03-23T05:37:44.699Z,98646.39
2018-03-23T05:40:12.274Z,98641.38
2018-03-23T05:42:39.890Z,98637.47
2018-03-23T05:45:07.472Z,98636.00
2018-03-23T05:47:35.049Z,98635.47
2018-03-23T05:50:02.661Z,98640.62
2018-03-23T05:52:30.370Z,98638.82
2018-03-23T05:54:58.003Z,98643.14
2018-03-23T05:57:25.634Z,98636.66
2018-03-23T05:59:53.299Z,98635.98
2018-03-23T06:02:20.867Z,98631.64
2018-03-23T06:04:48.510Z,98634.16
2018-03-23T06:07:16.098Z,98627.13
2018-03-23T06:09:43.670Z,98634.38
2018-03-23T06:12:11.285Z,98641.77
2018-03-23T06:14:38.868Z,98634.08
2018-03-23T06:17:06.550Z,98635.80
2018-03-23T06:19:34.164Z,98641.35
2018-03-23T06:22:01.742Z,98649.12
2018-03-23T06:24:29.328Z,98649.94
2018-03-23T06:26:56.923Z,98649.47
2018-03-23T06:29:24.497Z,98652.42
2018-03-23T06:31:52.073Z,98653.63
2018-03-23T06:34:19.694Z,98647.84
2018-03-23T06:36:47.274Z,98655.84
2018-03-23T06:39:14.871Z,98658.45
2018-03-23T06:41:42.490Z,98647.30
2018-03-23T06:44:10.121Z,98661.84
2018-03-23T06:46:38.622Z,98615.83
2018-03-23T06:49:06.239Z,98658.87
2018-03-23T06:51:33.825Z,98654.81
2018-03-23T06:54:01.586Z,98658.81
2018-03-23T06:56:29.203Z,98654.34
2018-03-23T06:58:56.795Z,98658.14
2018-03-23T07:01:24.385Z,98659.17
2018-03-23T07:03:52.029Z,98662.89
2018-03-23T07:06:19.613Z,98668.52
2018-03-23T07:08:47.198Z,98666.84
2018-03-23T07:11:14.837Z,98672.97
2018-03-23T07:13:42.414Z,98664.42
2018-03-23T07:16:10.100Z,98669.00
2018-03-23T07:18:37.774Z,98660.66
2018-03-23T07:21:06.286Z,98662.89
2018-03-23T07:23:33.868Z,98667.59
2018-03-23T07:26:01.500Z,98667.86
2018-03-23T07:28:29.092Z,98668.72
2018-03-23T07:30:56.694Z,98666.61
2018-03-23T07:33:24.327Z,98666.94
2018-03-23T07:35:51.923Z,98660.23
2018-03-23T07:38:19.510Z,98661.27
2018-03-23T07:40:47.141Z,98663.25
2018-03-23T07:43:14.734Z,98655.76
2018-03-23T07:45:42.383Z,98654.13
2018-03-23T07:48:10.004Z,98652.94
2018-03-23T07:50:37.597Z,98654.27
2018-03-23T07:53:05.186Z,98653.33
2018-03-23T07:55:32.810Z,98646.24
2018-03-23T07:58:00.394Z,98640.33
2018-03-23T08:00:27.987Z,98636.44
2018-03-23T08:02:55.611Z,98631.91
2018-03-23T08:05:23.198Z,98626.47
2018-03-23T08:07:50.773Z,98625.11
2018-03-23T08:10:18.402Z,98622.04
2018-03-23T08:12:46.106Z,98618.31
2018-03-23T08:15:13.710Z,98619.33
2018-03-23T08:17:41.332Z,98616.15
2018-03-23T08:20:08.949Z,98623.23
2018-03-23T08:22:36.580Z,98612.79
2018-03-23T08:25:04.209Z,98613.91
2018-03-23T08:27:31.791Z,98607.69
2018-03-23T08:29:59.384Z,98610.14
2018-03-23T08:32:27.055Z,98608.16
2018-03-23T08:34:54.650Z,98608.67
2018-03-23T08:37:22.307Z,98611.83
2018-03-23T08:39:49.965Z,98612.39
2018-03-23T08:42:17.562Z,98600.17
2018-03-23T08:44:45.246Z,98603.25
2018-03-23T08:47:12.876Z,98592.74
2018-03-23T08:49:40.470Z,98596.91
2018-03-23T08:52:08.644Z,98605.09
2018-03-23T08:54:36.266Z,98596.44
2018-03-23T08:57:03.858Z,98607.16
2018-03-23T08:59:31.492Z,98599.63
2018-03-23T09:01:59.121Z,98606.47
2018-03-23T09:04:26.696Z,98602.41
2018-03-23T09:06:54.299Z,98610.36
2018-03-23T09:09:21.984Z,98601.11
2018-03-23T09:11:49.569Z,98601.05
2018-03-23T09:14:17.149Z,98595.56
2018-03-23T09:16:44.796Z,98603.53
2018-03-23T09:19:12.390Z,98598.18
2018-03-23T09:21:39.981Z,98599.50
2018-03-23T09:24:07.614Z,98604.58
2018-03-23T09:26:35.245Z,98599.13
2018-03-23T09:29:02.832Z,98599.61
2018-03-23T09:31:30.462Z,98597.34
2018-03-23T09:33:58.076Z,98598.75
2018-03-23T09:36:25.682Z,98593.83
2018-03-23T09:38:53.349Z,98601.63
2018-03-23T09:41:20.969Z,98595.94
2018-03-23T09:43:48.610Z,98597.92
2018-03-23T09:46:16.257Z,98592.10
2018-03-23T09:48:43.903Z,98591.54
2018-03-23T09:51:11.471Z,98596.27
2018-03-23T09:53:39.083Z,98593.49
2018-03-23T09:56:06.672Z,98597.06
2018-03-23T09:58:34.256Z,98592.34
2018-03-23T10:01:01.955Z,98592.44
2018-03-23T10:03:29.558Z,98583.95
2018-03-23T10:05:57.169Z,98586.09
2018-03-23T10:08:24.796Z,98584.53
2018-03-23T10:10:52.378Z,98571.22
2018-03-23T10:13:19.986Z,98571.83
2018-03-23T10:15:47.617Z,98566.06
2018-03-23T10:18:15.201Z,98570.35
2018-03-23T10:20:42.793Z,98571.37
2018-03-23T10:23:10.405Z,98573.94
2018-03-23T10:25:37.984Z,98579.28
2018-03-23T10:28:05.555Z,98576.45
2018-03-23T10:30:33.166Z,98578.13
2018-03-23T10:33:00.760Z,98574.71
2018-03-23T10:35:28.572Z,98574.56
2018-03-23T10:37:56.380Z,98579.61
2018-03-23T10:40:24.037Z,98580.53
2018-03-23T10:42:51.620Z,98581.24
2018-03-23T10:45:19.380Z,98573.52
2018-03-23T10:47:46.962Z,98577.45
2018-03-23T10:50:14.692Z,98578.84
2018-03-23T10:52:42.535Z,98583.02
2018-03-23T10:55:10.113Z,98576.73
2018-03-23T10:57:37.693Z,98576.83
2018-03-23T11:00:05.405Z,98559.45
2018-03-23T11:02:43.029Z,98560.65
2018-03-23T11:05:10.655Z,98563.66
2018-03-23T11:07:38.233Z,98561.56
2018-03-23T11:10:05.814Z,98558.58
2018-03-23T11:12:33.432Z,98556.05
2018-03-23T11:15:01.054Z,98545.95
2018-03-23T11:17:28.634Z,98537.97
2018-03-23T11:19:56.234Z,98537.42
2018-03-23T11:22:23.818Z,98541.17
2018-03-23T11:24:51.586Z,98541.80
2018-03-23T11:27:19.199Z,98542.47
2018-03-23T11:29:46.926Z,98541.12
2018-03-23T11:32:14.571Z,98529.84
2018-03-23T11:34:42.185Z,98525.19
2018-03-23T11:37:09.760Z,98518.19
2018-03-23T11:39:37.322Z,98510.39
2018-03-23T11:42:04.931Z,98515.70
2018-03-23T11:44:32.493Z,98510.73
2018-03-23T11:47:00.086Z,98508.03
2018-03-23T11:49:27.693Z,98510.45
2018-03-23T11:51:55.297Z,98504.13
2018-03-23T11:54:22.869Z,98493.41
2018-03-23T11:56:50.614Z,98499.73
2018-03-23T11:59:18.350Z,98495.61
2018-03-23T12:01:45.923Z,98489.66
2018-03-23T12:04:13.631Z,98490.70
2018-03-23T12:06:41.206Z,98500.20
2018-03-23T12:09:08.770Z,98490.34
2018-03-23T12:11:36.383Z,98489.05
2018-03-23T12:14:04.123Z,98493.75
2018-03-23T12:16:31.701Z,98496.66
2018-03-23T12:18:59.441Z,98498.44
2018-03-23T12:21:27.054Z,98490.83
2018-03-23T12:23:54.771Z,98493.20
2018-03-23T12:26:22.368Z,98494.92
2018-03-23T12:28:50.305Z,98496.21
2018-03-23T12:31:17.954Z,98502.23
2018-03-23T12:33:45.556Z,98496.94
2018-03-23T12:36:13.142Z,98500.36
2018-03-23T12:38:40.706Z,98504.92
2018-03-23T12:41:08.315Z,98505.48
2018-03-23T12:43:35.919Z,98510.31
2018-03-23T12:46:03.516Z,98511.31
2018-03-23T12:48:31.113Z,98509.31
2018-03-23T12:50:58.750Z,98509.06
2018-03-23T12:53:26.320Z,98509.72
2018-03-23T12:55:53.924Z,98494.20
2018-03-23T12:58:21.502Z,98490.90
2018-03-23T13:00:49.294Z,98493.78
2018-03-23T13:03:16.899Z,98491.22
2018-03-23T13:05:44.458Z,98491.08
2018-03-23T13:08:12.015Z,98491.87
2018-03-23T13:10:39.681Z,98482.83
2018-03-23T13:13:07.254Z,98485.60
2018-03-23T13:15:34.831Z,98483.39
2018-03-23T13:18:02.435Z,98485.80
2018-03-23T13:20:30.000Z,98488.23
2018-03-23T13:22:57.573Z,98486.11
2018-03-23T13:25:25.192Z,98491.95
2018-03-23T13:27:52.776Z,98493.79
2018-03-23T13:30:20.367Z,98503.48
2018-03-23T13:32:47.988Z,98493.84
2018-03-23T13:35:15.565Z,98501.61
2018-03-23T13:37:43.129Z,98498.28
2018-03-23T13:40:10.736Z,98501.31
2018-03-23T13:42:38.302Z,98501.66
2018-03-23T13:45:05.878Z,98500.14
2018-03-23T13:47:33.483Z,98504.02
2018-03-23T13:50:01.070Z,98498.78
2018-03-23T13:52:28.650Z,98497.52
2018-03-23T13:54:56.255Z,98495.95
2018-03-23T13:57:23.838Z,98494.28
2018-03-23T13:59:57.050Z,98495.67
2018-03-23T14:02:24.633Z,98487.66
2018-03-23T14:04:52.254Z,98491.03
2018-03-23T14:07:19.873Z,98492.34
2018-03-23T14:09:47.454Z,98490.27
2018-03-23T14:12:15.026Z,98487.61
2018-03-23T14:14:43.602Z,98476.42
2018-03-23T14:17:11.186Z,98475.64
2018-03-23T14:19:38.778Z,98489.61
2018-03-23T14:22:06.385Z,98491.05
2018-03-23T14:24:33.969Z,98493.80
2018-03-23T14:27:01.555Z,98495.23
2018-03-23T14:29:29.174Z,98495.63
2018-03-23T14:31:56.765Z,98491.66
2018-03-23T14:34:24.353Z,98501.55
2018-03-23T14:36:51.970Z,98500.73
2018-03-23T14:39:19.564Z,98501.34
2018-03-23T14:41:47.154Z,98508.55
2018-03-23T14:44:14.810Z,98501.52
2018-03-23T14:46:42.425Z,98507.09
2018-03-23T14:49:10.000Z,98511.19
2018-03-23T14:51:37.666Z,98511.45
2018-03-23T14:54:05.258Z,98505.59
2018-03-23T14:56:32.842Z,98505.88
2018-03-23T14:59:05.874Z,98509.05
2018-03-23T15:01:33.450Z,98512.78
2018-03-23T15:04:01.035Z,98504.58
2018-03-23T15:06:28.669Z,98517.50
2018-03-23T15:08:56.241Z,98517.87
2018-03-23T15:11:23.811Z,98517.46
2018-03-23T15:13:51.462Z,98516.38
2018-03-23T15:16:19.042Z,98523.73
2018-03-23T15:18:46.635Z,98533.67
2018-03-23T15:21:14.263Z,98535.86
2018-03-23T15:23:41.910Z,98531.98
2018-03-23T15:26:09.494Z,98541.97
2018-03-23T15:28:37.174Z,98536.05
2018-03-23T15:31:04.775Z,98538.20
2018-03-23T15:33:32.353Z,98547.03
2018-03-23T15:35:59.974Z,98546.95
2018-03-23T15:38:27.571Z,98542.80
2018-03-23T15:40:55.190Z,98547.88
2018-03-23T15:43:22.815Z,98541.17
2018-03-23T15:45:50.398Z,98536.70
2018-03-23T15:48:17.999Z,98537.22
2018-03-23T15:50:45.600Z,98551.05
2018-03-23T15:53:13.190Z,98560.13
2018-03-23T15:55:40.782Z,98568.15
2018-03-23T15:58:08.540Z,98565.67
2018-03-23T16:00:36.135Z,98565.12
2018-03-23T16:03:03.759Z,98563.90
2018-03-23T16:05:31.760Z,98564.09
2018-03-23T16:07:59.365Z,98562.20
2018-03-23T16:10:26.958Z,98565.58
2018-03-23T16:12:54.588Z,98572.91
2018-03-23T16:15:22.183Z,98573.30
2018-03-23T16:17:49.773Z,98573.41
2018-03-23T16:20:17.406Z,98580.26
2018-03-23T16:22:44.994Z,98586.79
2018-03-23T16:25:12.573Z,98581.21
2018-03-23T16:27:40.235Z,98582.22
2018-03-23T16:30:07.822Z,98581.58
2018-03-23T16:32:35.403Z,98582.95
2018-03-23T16:35:03.036Z,98593.11
2018-03-23T16:37:30.655Z,98586.84
2018-03-23T16:39:58.317Z,98583.33
2018-03-23T16:42:25.928Z,98589.16
2018-03-23T16:44:53.499Z,98585.72
2018-03-23T16:47:21.090Z,98588.84
2018-03-23T16:49:48.705Z,98583.47
2018-03-23T16:52:16.298Z,98587.56
2018-03-23T16:54:43.925Z,98583.42
2018-03-23T16:57:11.642Z,98581.09
2018-03-23T16:59:39.224Z,98585.51
2018-03-23T17:02:06.809Z,98587.01
2018-03-23T17:04:34.447Z,98585.92
2018-03-23T17:07:02.035Z,98591.22
2018-03-23T17:09:29.639Z,98607.75
2018-03-23T17:11:57.266Z,98608.84
2018-03-23T17:14:24.896Z,98610.20
2018-03-23T17:16:52.509Z,98605.80
2018-03-23T17:19:20.129Z,98603.94
2018-03-23T17:21:47.860Z,98602.14
2018-03-23T17:24:15.506Z,98606.18
2018-03-23T17:26:43.123Z,98614.55
2018-03-23T17:29:11.033Z,98614.09
2018-03-23T17:31:38.694Z,98616.01
2018-03-23T17:34:06.373Z,98617.55
2018-03-23T17:36:34.022Z,98616.65
2018-03-23T17:39:01.594Z,98611.05
2018-03-23T17:41:29.360Z,98609.91
2018-03-23T17:43:56.947Z,98614.15
2018-03-23T17:46:24.670Z,98617.68
2018-03-23T17:48:52.351Z,98629.22
2018-03-23T17:51:19.906Z,98635.84
2018-03-23T17:53:47.647Z,98634.19
2018-03-23T17:56:15.272Z,98637.88
2018-03-23T17:58:42.880Z,98640.20
2018-03-23T18:01:10.640Z,98642.44
2018-03-23T18:03:38.233Z,98645.55
2018-03-23T18:06:05.803Z,98639.61
2018-03-23T18:08:33.430Z,98640.98
2018-03-23T18:11:01.096Z,98643.44
2018-03-23T18:13:28.765Z,98640.45
2018-03-23T18:15:56.342Z,98640.45
2018-03-23T18:18:24.086Z,98648.80
2018-03-23T18:20:51.662Z,98651.49
2018-03-23T18:23:19.237Z,98650.58
2018-03-23T18:25:46.866Z,98645.51
2018-03-23T18:28:14.547Z,98643.38
2018-03-23T18:30:42.190Z,98641.86
2018-03-23T18:33:09.831Z,98638.31
2018-03-23T18:35:37.520Z,98639.45
2018-03-23T18:38:05.167Z,98638.91
2018-03-23T18:40:32.767Z,98641.02
2018-03-23T18:43:00.339Z,98643.08
2018-03-23T18:45:27.910Z,98645.98
2018-03-23T18:47:55.606Z,98647.87
2018-03-23T18:50:23.179Z,98652.67
2018-03-23T18:52:50.934Z,98657.58
2018-03-23T18:55:18.603Z,98663.91
2018-03-23T18:57:46.277Z,98673.46
2018-03-23T19:00:13.886Z,98662.59
2018-03-23T19:02:41.592Z,98658.35
2018-03-23T19:05:09.251Z,98651.56
2018-03-23T19:07:36.910Z,98658.57
2018-03-23T19:10:04.557Z,98649.59
2018-03-23T19:12:32.151Z,98649.72
2018-03-23T19:14:59.907Z,98652.14
2018-03-23T19:17:27.525Z,98647.17
2018-03-23T19:19:55.109Z,98652.16
2018-03-23T19:22:22.672Z,98644.53
2018-03-23T19:24:50.330Z,98650.66
2018-03-23T19:27:17.892Z,98652.67
2018-03-23T19:29:45.692Z,98660.72
2018-03-23T19:32:13.302Z,98657.23
2018-03-23T19:34:40.869Z,98657.98
2018-03-23T19:37:08.439Z,98659.36
2018-03-23T19:39:36.114Z,98660.27
2018-03-23T19:42:03.677Z,98654.88
2018-03-23T19:44:31.264Z,98665.05
2018-03-23T19:46:58.866Z,98667.87
2018-03-23T19:49:26.435Z,98671.73
2018-03-23T19:51:54.039Z,98668.06
2018-03-23T19:54:21.694Z,98664.32
2018-03-23T19:56:49.324Z,98660.20
2018-03-23T19:59:17.052Z,98659.25
2018-03-23T20:01:44.683Z,98665.34
2018-03-23T20:04:12.273Z,98667.67
2018-03-23T20:06:39.848Z,98672.64
2018-03-23T20:09:07.462Z,98668.80
2018-03-23T20:11:35.045Z,98673.16
2018-03-23T20:14:08.231Z,98676.81
2018-03-23T20:16:35.813Z,98676.41
2018-03-23T20:19:03.397Z,98677.88
2018-03-23T20:21:30.995Z,98673.36
2018-03-23T20:27:13.400Z,98673.67
2018-03-23T20:29:40.966Z,98666.45
2018-03-23T20:32:14.228Z,98674.36
2018-03-23T20:34:41.822Z,98671.59
2018-03-23T20:37:09.383Z,98672.81
2018-03-23T20:39:36.972Z,98669.53
2018-03-23T20:42:04.541Z,98669.48
2018-03-23T20:44:32.138Z,98679.02
2018-03-23T20:46:59.755Z,98671.45
2018-03-23T20:49:27.322Z,98671.36
2018-03-23T20:51:54.894Z,98671.11
2018-03-23T20:54:22.520Z,98663.48
2018-03-23T20:56:50.123Z,98665.59
2018-03-23T20:59:17.762Z,98660.75
2018-03-23T21:01:45.357Z,98660.25
2018-03-23T21:04:12.934Z,98657.74
2018-03-23T21:06:40.526Z,98664.34
2018-03-23T21:09:08.138Z,98665.59
2018-03-23T21:11:35.698Z,98664.62
2018-03-23T21:14:03.306Z,98668.56
2018-03-23T21:16:30.923Z,98666.70
2018-03-23T21:18:58.528Z,98656.53
2018-03-23T21:21:26.222Z,98659.83
2018-03-23T21:23:53.830Z,98666.12
2018-03-23T21:26:21.411Z,98667.66
2018-03-23T21:28:48.990Z,98671.86
2018-03-23T21:31:16.605Z,98677.05
2018-03-23T21:33:44.200Z,98667.42
2018-03-23T21:36:11.772Z,98668.14
2018-03-23T21:38:39.422Z,98670.21
2018-03-23T21:41:06.997Z,98663.92
2018-03-23T21:43:34.569Z,98669.14
2018-03-23T21:46:02.176Z,98661.60
2018-03-23T21:48:29.756Z,98671.69
2018-03-23T21:50:57.321Z,98659.00
2018-03-23T21:53:24.931Z,98663.88
2018-03-23T21:55:52.505Z,98663.77
2018-03-23T21:58:20.087Z,98660.00
2018-03-23T22:00:47.684Z,98652.02
2018-03-23T22:03:15.234Z,98653.66
2018-03-23T22:05:42.818Z,98653.71
2018-03-23T22:08:10.418Z,98657.80
2018-03-23T22:10:38.031Z,98654.05
2018-03-23T22:13:05.583Z,98652.61
2018-03-23T22:15:33.187Z,98657.44
2018-03-23T22:18:00.746Z,98658.89
2018-03-23T22:20:28.316Z,98663.77
2018-03-23T22:22:55.905Z,98664.30
2018-03-23T22:25:23.471Z,98647.20
2018-03-23T22:27:51.044Z,98664.71
2018-03-23T22:30:18.649Z,98655.84
2018-03-23T22:32:46.226Z,98658.02
2018-03-23T22:35:13.796Z,98657.57
2018-03-23T22:37:41.411Z,98658.54
2018-03-23T22:40:09.002Z,98660.58
2018-03-23T22:42:36.585Z,98651.91
2018-03-23T22:45:04.229Z,98657.17
2018-03-23T22:47:31.816Z,98660.41
2018-03-23T22:49:59.390Z,98652.39
2018-03-23T22:52:27.002Z,98644.31
2018-03-23T22:54:54.867Z,98646.34
2018-03-23T22:57:22.541Z,98647.48
2018-03-23T22:59:50.170Z,98647.19
2018-03-23T23:02:17.759Z,98643.92
2018-03-23T23:04:45.342Z,98644.89
2018-03-23T23:07:12.949Z,98647.08
2018-03-23T23:09:40.548Z,98653.86
2018-03-23T23:12:08.518Z,98658.67
2018-03-23T23:14:36.144Z,98657.35
2018-03-23T23:17:03.726Z,98659.23
2018-03-23T23:19:31.359Z,98666.37
2018-03-23T23:21:59.002Z,98662.63
2018-03-23T23:24:26.587Z,98642.75
2018-03-23T23:26:54.169Z,98667.42
2018-03-23T23:29:21.838Z,98664.64
2018-03-23T23:31:49.417Z,98655.97
2018-03-23T23:34:17.005Z,98670.98
2018-03-23T23:36:44.623Z,98669.72
2018-03-23T23:39:12.215Z,98659.80
2018-03-23T23:41:39.805Z,98661.20
2018-03-23T23:44:07.428Z,98660.84
2018-03-23T23:46:35.021Z,98655.52
2018-03-23T23:49:02.611Z,98659.22
2018-03-23T23:51:30.242Z,98651.60
2018-03-23T23:53:57.829Z,98646.95
2018-03-23T23:56:25.407Z,98641.06
2018-03-23T23:58:53.031Z,98640.94
